sensor_id;sensor_type;location;lat;lon;timestamp;temperature;humidity
34137;DHT22;20414;50.860;4.382;2022-08-07T00:01:54;21.50;47.30
34137;DHT22;20414;50.860;4.382;2022-08-07T00:04:21;21.50;47.40
34137;DHT22;20414;50.860;4.382;2022-08-07T00:06:46;21.50;47.40
34137;DHT22;20414;50.860;4.382;2022-08-07T00:09:12;21.50;47.50
34137;DHT22;20414;50.860;4.382;2022-08-07T00:11:38;21.40;47.60
34137;DHT22;20414;50.860;4.382;2022-08-07T00:14:04;21.40;47.70
34137;DHT22;20414;50.860;4.382;2022-08-07T00:16:29;21.40;47.80
34137;DHT22;20414;50.860;4.382;2022-08-07T00:18:55;21.40;47.90
34137;DHT22;20414;50.860;4.382;2022-08-07T00:21:21;21.40;48.00
34137;DHT22;20414;50.860;4.382;2022-08-07T00:23:46;21.40;48.10
34137;DHT22;20414;50.860;4.382;2022-08-07T00:26:12;21.40;48.10
34137;DHT22;20414;50.860;4.382;2022-08-07T00:28:38;21.40;48.30
34137;DHT22;20414;50.860;4.382;2022-08-07T00:31:07;21.30;48.30
34137;DHT22;20414;50.860;4.382;2022-08-07T00:33:38;21.30;48.40
34137;DHT22;20414;50.860;4.382;2022-08-07T00:36:05;21.30;49.10
34137;DHT22;20414;50.860;4.382;2022-08-07T00:38:31;21.30;48.70
34137;DHT22;20414;50.860;4.382;2022-08-07T00:40:59;21.30;48.70
34137;DHT22;20414;50.860;4.382;2022-08-07T00:43:25;21.30;48.70
34137;DHT22;20414;50.860;4.382;2022-08-07T00:45:51;21.30;48.80
34137;DHT22;20414;50.860;4.382;2022-08-07T00:48:17;21.30;48.90
34137;DHT22;20414;50.860;4.382;2022-08-07T00:50:43;21.30;48.90
34137;DHT22;20414;50.860;4.382;2022-08-07T00:53:08;21.20;49.00
34137;DHT22;20414;50.860;4.382;2022-08-07T00:55:34;21.20;49.20
34137;DHT22;20414;50.860;4.382;2022-08-07T00:58:00;21.20;49.30
34137;DHT22;20414;50.860;4.382;2022-08-07T01:00:26;21.20;49.30
34137;DHT22;20414;50.860;4.382;2022-08-07T01:02:52;21.20;49.30
34137;DHT22;20414;50.860;4.382;2022-08-07T01:05:19;21.20;49.40
34137;DHT22;20414;50.860;4.382;2022-08-07T01:07:45;21.20;49.50
34137;DHT22;20414;50.860;4.382;2022-08-07T01:10:11;21.20;49.70
34137;DHT22;20414;50.860;4.382;2022-08-07T01:12:39;21.20;49.70
34137;DHT22;20414;50.860;4.382;2022-08-07T01:15:05;21.20;49.80
34137;DHT22;20414;50.860;4.382;2022-08-07T01:17:32;21.10;49.90
34137;DHT22;20414;50.860;4.382;2022-08-07T01:20:06;21.20;50.00
34137;DHT22;20414;50.860;4.382;2022-08-07T01:22:32;21.20;50.10
34137;DHT22;20414;50.860;4.382;2022-08-07T01:24:58;21.20;50.20
34137;DHT22;20414;50.860;4.382;2022-08-07T01:27:25;21.10;50.20
34137;DHT22;20414;50.860;4.382;2022-08-07T01:29:51;21.10;50.30
34137;DHT22;20414;50.860;4.382;2022-08-07T01:32:17;21.10;50.40
34137;DHT22;20414;50.860;4.382;2022-08-07T01:34:43;21.10;50.40
34137;DHT22;20414;50.860;4.382;2022-08-07T01:37:10;21.10;50.60
34137;DHT22;20414;50.860;4.382;2022-08-07T01:39:38;21.10;50.50
34137;DHT22;20414;50.860;4.382;2022-08-07T01:42:03;21.10;50.60
34137;DHT22;20414;50.860;4.382;2022-08-07T01:44:30;21.10;50.60
34137;DHT22;20414;50.860;4.382;2022-08-07T01:46:56;21.10;50.70
34137;DHT22;20414;50.860;4.382;2022-08-07T01:49:22;21.10;50.80
34137;DHT22;20414;50.860;4.382;2022-08-07T01:51:49;21.10;50.90
34137;DHT22;20414;50.860;4.382;2022-08-07T01:54:18;21.00;50.80
34137;DHT22;20414;50.860;4.382;2022-08-07T01:56:51;21.00;50.90
34137;DHT22;20414;50.860;4.382;2022-08-07T01:59:26;21.00;51.10
34137;DHT22;20414;50.860;4.382;2022-08-07T02:01:57;21.00;51.20
34137;DHT22;20414;50.860;4.382;2022-08-07T02:04:43;21.00;51.20
34137;DHT22;20414;50.860;4.382;2022-08-07T02:07:11;21.00;51.30
34137;DHT22;20414;50.860;4.382;2022-08-07T02:09:40;20.90;51.40
34137;DHT22;20414;50.860;4.382;2022-08-07T02:12:08;20.90;51.40
34137;DHT22;20414;50.860;4.382;2022-08-07T02:14:53;20.90;51.50
34137;DHT22;20414;50.860;4.382;2022-08-07T02:17:19;20.90;51.50
34137;DHT22;20414;50.860;4.382;2022-08-07T02:19:48;20.90;51.50
34137;DHT22;20414;50.860;4.382;2022-08-07T02:22:15;20.90;51.60
34137;DHT22;20414;50.860;4.382;2022-08-07T02:24:45;20.90;51.60
34137;DHT22;20414;50.860;4.382;2022-08-07T02:27:14;20.90;51.80
34137;DHT22;20414;50.860;4.382;2022-08-07T02:29:41;20.80;51.90
34137;DHT22;20414;50.860;4.382;2022-08-07T02:32:08;20.80;51.90
34137;DHT22;20414;50.860;4.382;2022-08-07T02:34:36;20.80;51.90
34137;DHT22;20414;50.860;4.382;2022-08-07T02:37:04;20.80;52.00
34137;DHT22;20414;50.860;4.382;2022-08-07T02:39:33;20.80;52.00
34137;DHT22;20414;50.860;4.382;2022-08-07T02:42:01;20.80;51.90
34137;DHT22;20414;50.860;4.382;2022-08-07T02:44:28;20.80;52.00
34137;DHT22;20414;50.860;4.382;2022-08-07T02:46:56;20.80;52.10
34137;DHT22;20414;50.860;4.382;2022-08-07T02:49:23;20.80;52.20
34137;DHT22;20414;50.860;4.382;2022-08-07T02:51:50;20.80;52.30
34137;DHT22;20414;50.860;4.382;2022-08-07T02:54:17;20.80;52.20
34137;DHT22;20414;50.860;4.382;2022-08-07T02:56:45;20.80;52.30
34137;DHT22;20414;50.860;4.382;2022-08-07T02:59:17;20.80;52.30
34137;DHT22;20414;50.860;4.382;2022-08-07T03:01:44;20.80;52.40
34137;DHT22;20414;50.860;4.382;2022-08-07T03:04:12;20.80;52.40
34137;DHT22;20414;50.860;4.382;2022-08-07T03:06:43;20.70;52.50
34137;DHT22;20414;50.860;4.382;2022-08-07T03:09:09;20.70;52.50
34137;DHT22;20414;50.860;4.382;2022-08-07T03:11:36;20.70;52.60
34137;DHT22;20414;50.860;4.382;2022-08-07T03:14:03;20.70;52.70
34137;DHT22;20414;50.860;4.382;2022-08-07T03:16:30;20.70;52.70
34137;DHT22;20414;50.860;4.382;2022-08-07T03:18:57;20.70;52.70
34137;DHT22;20414;50.860;4.382;2022-08-07T03:21:24;20.70;52.80
34137;DHT22;20414;50.860;4.382;2022-08-07T03:23:54;20.70;52.80
34137;DHT22;20414;50.860;4.382;2022-08-07T03:26:23;20.70;52.90
34137;DHT22;20414;50.860;4.382;2022-08-07T03:28:50;20.60;53.00
34137;DHT22;20414;50.860;4.382;2022-08-07T03:31:17;20.60;53.00
34137;DHT22;20414;50.860;4.382;2022-08-07T03:33:46;20.60;53.10
34137;DHT22;20414;50.860;4.382;2022-08-07T03:36:13;20.50;53.10
34137;DHT22;20414;50.860;4.382;2022-08-07T03:38:40;20.50;53.30
34137;DHT22;20414;50.860;4.382;2022-08-07T03:41:08;20.50;53.40
34137;DHT22;20414;50.860;4.382;2022-08-07T03:43:34;20.50;53.40
34137;DHT22;20414;50.860;4.382;2022-08-07T03:46:02;20.50;53.30
34137;DHT22;20414;50.860;4.382;2022-08-07T03:48:28;20.60;53.30
34137;DHT22;20414;50.860;4.382;2022-08-07T03:50:55;20.50;53.30
34137;DHT22;20414;50.860;4.382;2022-08-07T03:53:21;20.50;53.40
34137;DHT22;20414;50.860;4.382;2022-08-07T03:55:48;20.50;53.40
34137;DHT22;20414;50.860;4.382;2022-08-07T03:58:19;20.50;53.50
34137;DHT22;20414;50.860;4.382;2022-08-07T04:00:46;20.50;53.60
34137;DHT22;20414;50.860;4.382;2022-08-07T04:03:12;20.50;54.10
34137;DHT22;20414;50.860;4.382;2022-08-07T04:05:38;20.50;53.50
34137;DHT22;20414;50.860;4.382;2022-08-07T04:08:04;20.50;53.60
34137;DHT22;20414;50.860;4.382;2022-08-07T04:10:30;20.50;53.60
34137;DHT22;20414;50.860;4.382;2022-08-07T04:12:56;20.40;53.70
34137;DHT22;20414;50.860;4.382;2022-08-07T04:15:22;20.50;53.80
34137;DHT22;20414;50.860;4.382;2022-08-07T04:17:48;20.50;53.70
34137;DHT22;20414;50.860;4.382;2022-08-07T04:20:14;20.50;53.70
34137;DHT22;20414;50.860;4.382;2022-08-07T04:22:41;20.40;53.70
34137;DHT22;20414;50.860;4.382;2022-08-07T04:25:08;20.40;53.80
34137;DHT22;20414;50.860;4.382;2022-08-07T04:27:34;20.40;53.80
34137;DHT22;20414;50.860;4.382;2022-08-07T04:30:00;20.40;53.80
34137;DHT22;20414;50.860;4.382;2022-08-07T04:32:26;20.40;53.80
34137;DHT22;20414;50.860;4.382;2022-08-07T04:34:53;20.40;53.90
34137;DHT22;20414;50.860;4.382;2022-08-07T04:37:20;20.40;54.40
34137;DHT22;20414;50.860;4.382;2022-08-07T04:39:45;20.40;53.90
34137;DHT22;20414;50.860;4.382;2022-08-07T04:42:11;20.40;54.50
34137;DHT22;20414;50.860;4.382;2022-08-07T04:44:37;20.40;54.00
34137;DHT22;20414;50.860;4.382;2022-08-07T04:47:12;20.40;54.00
34137;DHT22;20414;50.860;4.382;2022-08-07T04:49:42;20.40;54.00
34137;DHT22;20414;50.860;4.382;2022-08-07T04:52:26;20.40;54.10
34137;DHT22;20414;50.860;4.382;2022-08-07T04:55:09;20.40;54.10
34137;DHT22;20414;50.860;4.382;2022-08-07T04:58:31;20.40;54.10
34137;DHT22;20414;50.860;4.382;2022-08-07T05:03:43;20.40;54.00
34137;DHT22;20414;50.860;4.382;2022-08-07T05:06:16;20.40;54.10
34137;DHT22;20414;50.860;4.382;2022-08-07T05:09:03;20.40;54.10
34137;DHT22;20414;50.860;4.382;2022-08-07T05:11:46;20.40;54.30
34137;DHT22;20414;50.860;4.382;2022-08-07T05:14:18;20.40;54.40
34137;DHT22;20414;50.860;4.382;2022-08-07T05:16:44;20.40;54.40
34137;DHT22;20414;50.860;4.382;2022-08-07T05:19:16;20.40;54.40
34137;DHT22;20414;50.860;4.382;2022-08-07T05:21:47;20.40;54.50
34137;DHT22;20414;50.860;4.382;2022-08-07T05:24:16;20.40;54.50
34137;DHT22;20414;50.860;4.382;2022-08-07T05:26:43;20.40;54.50
34137;DHT22;20414;50.860;4.382;2022-08-07T05:29:13;20.40;54.50
34137;DHT22;20414;50.860;4.382;2022-08-07T05:31:41;20.40;54.40
34137;DHT22;20414;50.860;4.382;2022-08-07T05:34:10;20.40;54.50
34137;DHT22;20414;50.860;4.382;2022-08-07T05:36:42;20.40;54.40
34137;DHT22;20414;50.860;4.382;2022-08-07T05:39:08;20.40;54.50
34137;DHT22;20414;50.860;4.382;2022-08-07T05:41:36;20.40;54.50
34137;DHT22;20414;50.860;4.382;2022-08-07T05:44:02;20.40;54.60
34137;DHT22;20414;50.860;4.382;2022-08-07T05:46:29;20.40;54.60
34137;DHT22;20414;50.860;4.382;2022-08-07T05:48:56;20.40;54.60
34137;DHT22;20414;50.860;4.382;2022-08-07T05:51:23;20.40;54.50
34137;DHT22;20414;50.860;4.382;2022-08-07T05:53:49;20.40;54.60
34137;DHT22;20414;50.860;4.382;2022-08-07T05:56:16;20.40;54.60
34137;DHT22;20414;50.860;4.382;2022-08-07T05:58:43;20.40;54.60
34137;DHT22;20414;50.860;4.382;2022-08-07T06:01:12;20.40;54.50
34137;DHT22;20414;50.860;4.382;2022-08-07T06:03:40;20.50;54.60
34137;DHT22;20414;50.860;4.382;2022-08-07T06:06:08;20.50;54.60
34137;DHT22;20414;50.860;4.382;2022-08-07T06:08:35;20.50;54.50
34137;DHT22;20414;50.860;4.382;2022-08-07T06:11:02;20.50;54.40
34137;DHT22;20414;50.860;4.382;2022-08-07T06:13:27;20.50;54.30
34137;DHT22;20414;50.860;4.382;2022-08-07T06:15:53;20.50;54.30
34137;DHT22;20414;50.860;4.382;2022-08-07T06:18:20;20.60;54.30
34137;DHT22;20414;50.860;4.382;2022-08-07T06:20:46;20.60;54.30
34137;DHT22;20414;50.860;4.382;2022-08-07T06:23:12;20.60;54.20
34137;DHT22;20414;50.860;4.382;2022-08-07T06:25:39;20.70;54.30
34137;DHT22;20414;50.860;4.382;2022-08-07T06:28:07;20.60;54.20
34137;DHT22;20414;50.860;4.382;2022-08-07T06:30:34;20.70;54.30
34137;DHT22;20414;50.860;4.382;2022-08-07T06:33:00;20.70;54.10
34137;DHT22;20414;50.860;4.382;2022-08-07T06:35:26;20.70;54.10
34137;DHT22;20414;50.860;4.382;2022-08-07T06:37:52;20.70;54.10
34137;DHT22;20414;50.860;4.382;2022-08-07T06:40:18;20.70;53.90
34137;DHT22;20414;50.860;4.382;2022-08-07T06:42:46;20.70;53.90
34137;DHT22;20414;50.860;4.382;2022-08-07T06:45:15;20.70;53.90
34137;DHT22;20414;50.860;4.382;2022-08-07T06:47:42;20.80;53.90
34137;DHT22;20414;50.860;4.382;2022-08-07T06:50:08;20.80;53.90
34137;DHT22;20414;50.860;4.382;2022-08-07T06:52:36;20.70;53.80
34137;DHT22;20414;50.860;4.382;2022-08-07T06:55:08;20.80;54.10
34137;DHT22;20414;50.860;4.382;2022-08-07T06:57:36;20.80;53.70
34137;DHT22;20414;50.860;4.382;2022-08-07T07:00:04;20.90;53.60
34137;DHT22;20414;50.860;4.382;2022-08-07T07:02:31;20.90;53.50
34137;DHT22;20414;50.860;4.382;2022-08-07T07:04:57;20.90;53.40
34137;DHT22;20414;50.860;4.382;2022-08-07T07:07:23;20.90;53.40
34137;DHT22;20414;50.860;4.382;2022-08-07T07:09:49;21.00;53.30
34137;DHT22;20414;50.860;4.382;2022-08-07T07:12:21;21.00;53.40
34137;DHT22;20414;50.860;4.382;2022-08-07T07:15:20;21.00;53.30
34137;DHT22;20414;50.860;4.382;2022-08-07T07:18:13;21.00;53.10
34137;DHT22;20414;50.860;4.382;2022-08-07T07:20:50;21.00;53.10
34137;DHT22;20414;50.860;4.382;2022-08-07T07:23:16;21.00;53.20
34137;DHT22;20414;50.860;4.382;2022-08-07T07:25:44;21.10;53.70
34137;DHT22;20414;50.860;4.382;2022-08-07T07:28:24;21.10;53.10
34137;DHT22;20414;50.860;4.382;2022-08-07T07:30:59;21.10;53.00
34137;DHT22;20414;50.860;4.382;2022-08-07T07:33:27;21.10;52.70
34137;DHT22;20414;50.860;4.382;2022-08-07T07:35:56;21.20;52.80
34137;DHT22;20414;50.860;4.382;2022-08-07T07:38:22;21.10;52.70
34137;DHT22;20414;50.860;4.382;2022-08-07T07:40:53;21.20;52.70
34137;DHT22;20414;50.860;4.382;2022-08-07T07:43:21;21.20;52.60
34137;DHT22;20414;50.860;4.382;2022-08-07T07:45:48;21.20;52.50
34137;DHT22;20414;50.860;4.382;2022-08-07T07:48:18;21.20;52.40
34137;DHT22;20414;50.860;4.382;2022-08-07T07:50:45;21.20;52.40
34137;DHT22;20414;50.860;4.382;2022-08-07T07:53:12;21.20;52.30
34137;DHT22;20414;50.860;4.382;2022-08-07T07:55:38;21.20;52.20
34137;DHT22;20414;50.860;4.382;2022-08-07T07:58:05;21.20;52.20
34137;DHT22;20414;50.860;4.382;2022-08-07T08:00:31;21.30;52.30
34137;DHT22;20414;50.860;4.382;2022-08-07T08:03:17;21.30;52.30
34137;DHT22;20414;50.860;4.382;2022-08-07T08:05:43;21.30;52.20
34137;DHT22;20414;50.860;4.382;2022-08-07T08:08:10;21.30;52.10
34137;DHT22;20414;50.860;4.382;2022-08-07T08:10:38;21.30;52.10
34137;DHT22;20414;50.860;4.382;2022-08-07T08:13:05;21.30;52.10
34137;DHT22;20414;50.860;4.382;2022-08-07T08:15:35;21.40;52.10
34137;DHT22;20414;50.860;4.382;2022-08-07T08:18:02;21.40;52.00
34137;DHT22;20414;50.860;4.382;2022-08-07T08:20:31;21.40;51.90
34137;DHT22;20414;50.860;4.382;2022-08-07T08:22:58;21.40;51.70
34137;DHT22;20414;50.860;4.382;2022-08-07T08:25:43;21.50;51.70
34137;DHT22;20414;50.860;4.382;2022-08-07T08:28:31;21.50;51.80
34137;DHT22;20414;50.860;4.382;2022-08-07T08:30:59;21.50;51.80
34137;DHT22;20414;50.860;4.382;2022-08-07T08:33:30;21.50;51.80
34137;DHT22;20414;50.860;4.382;2022-08-07T08:35:59;21.50;51.60
34137;DHT22;20414;50.860;4.382;2022-08-07T08:38:31;21.60;51.60
34137;DHT22;20414;50.860;4.382;2022-08-07T08:41:18;21.50;51.60
34137;DHT22;20414;50.860;4.382;2022-08-07T08:43:58;21.60;51.30
34137;DHT22;20414;50.860;4.382;2022-08-07T08:51:56;21.60;50.80
34137;DHT22;20414;50.860;4.382;2022-08-07T08:54:35;21.60;50.80
34137;DHT22;20414;50.860;4.382;2022-08-07T08:57:24;21.70;50.90
34137;DHT22;20414;50.860;4.382;2022-08-07T08:59:58;21.70;50.80
34137;DHT22;20414;50.860;4.382;2022-08-07T09:13:18;21.80;50.20
34137;DHT22;20414;50.860;4.382;2022-08-07T09:21:35;21.80;50.00
34137;DHT22;20414;50.860;4.382;2022-08-07T09:27:15;21.90;49.90
34137;DHT22;20414;50.860;4.382;2022-08-07T09:32:30;21.90;50.30
34137;DHT22;20414;50.860;4.382;2022-08-07T09:40:42;21.90;49.40
34137;DHT22;20414;50.860;4.382;2022-08-07T09:53:51;22.00;49.00
34137;DHT22;20414;50.860;4.382;2022-08-07T10:10:17;22.00;48.80
34137;DHT22;20414;50.860;4.382;2022-08-07T10:21:30;22.10;48.70
34137;DHT22;20414;50.860;4.382;2022-08-07T10:26:48;22.10;48.50
34137;DHT22;20414;50.860;4.382;2022-08-07T10:35:05;22.10;48.20
34137;DHT22;20414;50.860;4.382;2022-08-07T10:40:32;22.10;47.70
34137;DHT22;20414;50.860;4.382;2022-08-07T10:43:23;22.10;47.80
34137;DHT22;20414;50.860;4.382;2022-08-07T10:45:58;22.10;47.70
34137;DHT22;20414;50.860;4.382;2022-08-07T10:51:20;22.10;47.60
34137;DHT22;20414;50.860;4.382;2022-08-07T10:57:00;22.10;47.20
34137;DHT22;20414;50.860;4.382;2022-08-07T10:59:49;22.10;48.20
34137;DHT22;20414;50.860;4.382;2022-08-07T11:02:38;22.10;47.30
34137;DHT22;20414;50.860;4.382;2022-08-07T11:08:07;22.10;46.50
34137;DHT22;20414;50.860;4.382;2022-08-07T11:10:44;22.10;46.70
34137;DHT22;20414;50.860;4.382;2022-08-07T11:13:37;22.10;46.70
34137;DHT22;20414;50.860;4.382;2022-08-07T11:16:08;22.10;46.70
34137;DHT22;20414;50.860;4.382;2022-08-07T11:21:17;22.10;47.10
34137;DHT22;20414;50.860;4.382;2022-08-07T11:24:29;22.10;46.90
34137;DHT22;20414;50.860;4.382;2022-08-07T11:27:24;22.10;46.90
34137;DHT22;20414;50.860;4.382;2022-08-07T11:29:53;22.10;47.20
34137;DHT22;20414;50.860;4.382;2022-08-07T11:32:53;22.10;46.40
34137;DHT22;20414;50.860;4.382;2022-08-07T11:35:27;22.10;46.10
34137;DHT22;20414;50.860;4.382;2022-08-07T11:38:55;22.10;45.90
34137;DHT22;20414;50.860;4.382;2022-08-07T11:41:11;22.10;46.20
34137;DHT22;20414;50.860;4.382;2022-08-07T11:43:58;22.20;45.60
34137;DHT22;20414;50.860;4.382;2022-08-07T11:46:37;22.10;46.00
34137;DHT22;20414;50.860;4.382;2022-08-07T11:49:16;22.20;45.60
34137;DHT22;20414;50.860;4.382;2022-08-07T11:55:10;22.10;46.20
34137;DHT22;20414;50.860;4.382;2022-08-07T11:57:41;22.20;46.40
34137;DHT22;20414;50.860;4.382;2022-08-07T12:00:12;22.20;46.20
34137;DHT22;20414;50.860;4.382;2022-08-07T12:08:29;22.20;44.90
34137;DHT22;20414;50.860;4.382;2022-08-07T12:11:00;22.20;44.50
34137;DHT22;20414;50.860;4.382;2022-08-07T12:13:36;22.20;45.50
34137;DHT22;20414;50.860;4.382;2022-08-07T12:16:20;22.20;45.10
34137;DHT22;20414;50.860;4.382;2022-08-07T12:18:50;22.20;45.00
34137;DHT22;20414;50.860;4.382;2022-08-07T12:23:58;22.20;45.60
34137;DHT22;20414;50.860;4.382;2022-08-07T12:29:27;22.20;45.20
34137;DHT22;20414;50.860;4.382;2022-08-07T12:34:35;22.20;45.30
34137;DHT22;20414;50.860;4.382;2022-08-07T12:37:03;22.30;44.50
34137;DHT22;20414;50.860;4.382;2022-08-07T12:39:30;22.30;44.50
34137;DHT22;20414;50.860;4.382;2022-08-07T12:41:57;22.30;44.70
34137;DHT22;20414;50.860;4.382;2022-08-07T12:44:25;22.30;44.70
34137;DHT22;20414;50.860;4.382;2022-08-07T12:46:59;22.30;45.00
34137;DHT22;20414;50.860;4.382;2022-08-07T12:52:25;22.30;44.60
34137;DHT22;20414;50.860;4.382;2022-08-07T12:55:22;22.30;45.10
34137;DHT22;20414;50.860;4.382;2022-08-07T12:57:51;22.30;44.90
34137;DHT22;20414;50.860;4.382;2022-08-07T13:00:18;22.30;44.40
34137;DHT22;20414;50.860;4.382;2022-08-07T13:03:11;22.30;44.60
34137;DHT22;20414;50.860;4.382;2022-08-07T13:14:56;22.30;44.20
34137;DHT22;20414;50.860;4.382;2022-08-07T13:17:32;22.30;44.60
34137;DHT22;20414;50.860;4.382;2022-08-07T13:20:06;22.30;44.20
34137;DHT22;20414;50.860;4.382;2022-08-07T13:22:49;22.30;44.10
34137;DHT22;20414;50.860;4.382;2022-08-07T13:25:26;22.30;43.70
34137;DHT22;20414;50.860;4.382;2022-08-07T13:27:57;22.40;44.30
34137;DHT22;20414;50.860;4.382;2022-08-07T13:30:26;22.40;43.70
34137;DHT22;20414;50.860;4.382;2022-08-07T13:33:20;22.40;43.00
34137;DHT22;20414;50.860;4.382;2022-08-07T13:35:56;22.40;43.30
34137;DHT22;20414;50.860;4.382;2022-08-07T13:38:32;22.40;42.80
34137;DHT22;20414;50.860;4.382;2022-08-07T13:43:52;22.40;42.80
34137;DHT22;20414;50.860;4.382;2022-08-07T13:46:20;22.40;42.80
34137;DHT22;20414;50.860;4.382;2022-08-07T13:48:49;22.40;42.90
34137;DHT22;20414;50.860;4.382;2022-08-07T13:51:16;22.40;43.80
34137;DHT22;20414;50.860;4.382;2022-08-07T13:53:50;22.40;44.00
34137;DHT22;20414;50.860;4.382;2022-08-07T13:56:21;22.40;43.70
34137;DHT22;20414;50.860;4.382;2022-08-07T13:58:47;22.40;43.30
34137;DHT22;20414;50.860;4.382;2022-08-07T14:01:33;22.40;43.10
34137;DHT22;20414;50.860;4.382;2022-08-07T14:04:11;22.40;43.00
34137;DHT22;20414;50.860;4.382;2022-08-07T14:06:40;22.40;43.70
34137;DHT22;20414;50.860;4.382;2022-08-07T14:09:25;22.50;43.80
34137;DHT22;20414;50.860;4.382;2022-08-07T14:11:55;22.50;43.60
34137;DHT22;20414;50.860;4.382;2022-08-07T14:14:27;22.50;43.60
34137;DHT22;20414;50.860;4.382;2022-08-07T14:16:54;22.50;43.60
34137;DHT22;20414;50.860;4.382;2022-08-07T14:19:35;22.50;43.30
34137;DHT22;20414;50.860;4.382;2022-08-07T14:22:05;22.50;44.30
34137;DHT22;20414;50.860;4.382;2022-08-07T14:24:44;22.50;43.30
34137;DHT22;20414;50.860;4.382;2022-08-07T14:27:14;22.50;43.20
34137;DHT22;20414;50.860;4.382;2022-08-07T14:29:46;22.50;43.70
34137;DHT22;20414;50.860;4.382;2022-08-07T14:32:13;22.50;43.60
34137;DHT22;20414;50.860;4.382;2022-08-07T14:34:42;22.50;43.20
34137;DHT22;20414;50.860;4.382;2022-08-07T14:37:09;22.50;43.20
34137;DHT22;20414;50.860;4.382;2022-08-07T14:39:39;22.50;42.70
34137;DHT22;20414;50.860;4.382;2022-08-07T14:42:08;22.50;43.90
34137;DHT22;20414;50.860;4.382;2022-08-07T14:44:37;22.50;43.40
34137;DHT22;20414;50.860;4.382;2022-08-07T14:47:05;22.50;43.00
34137;DHT22;20414;50.860;4.382;2022-08-07T14:49:33;22.50;43.40
34137;DHT22;20414;50.860;4.382;2022-08-07T14:52:01;22.50;44.40
34137;DHT22;20414;50.860;4.382;2022-08-07T14:54:33;22.50;43.90
34137;DHT22;20414;50.860;4.382;2022-08-07T14:57:01;22.60;43.80
34137;DHT22;20414;50.860;4.382;2022-08-07T14:59:28;22.60;44.10
34137;DHT22;20414;50.860;4.382;2022-08-07T15:02:03;22.60;44.00
34137;DHT22;20414;50.860;4.382;2022-08-07T15:04:38;22.60;44.10
34137;DHT22;20414;50.860;4.382;2022-08-07T15:07:05;22.60;44.30
34137;DHT22;20414;50.860;4.382;2022-08-07T15:09:38;22.60;44.20
34137;DHT22;20414;50.860;4.382;2022-08-07T15:12:09;22.60;44.20
34137;DHT22;20414;50.860;4.382;2022-08-07T15:14:36;22.60;44.20
34137;DHT22;20414;50.860;4.382;2022-08-07T15:17:15;22.60;44.50
34137;DHT22;20414;50.860;4.382;2022-08-07T15:19:52;22.60;44.50
34137;DHT22;20414;50.860;4.382;2022-08-07T15:22:24;22.60;44.60
34137;DHT22;20414;50.860;4.382;2022-08-07T15:24:50;22.60;44.60
34137;DHT22;20414;50.860;4.382;2022-08-07T15:27:24;22.60;44.60
34137;DHT22;20414;50.860;4.382;2022-08-07T15:29:53;22.60;44.50
34137;DHT22;20414;50.860;4.382;2022-08-07T15:32:20;22.60;43.90
34137;DHT22;20414;50.860;4.382;2022-08-07T15:34:53;22.60;44.60
34137;DHT22;20414;50.860;4.382;2022-08-07T15:37:28;22.60;44.70
34137;DHT22;20414;50.860;4.382;2022-08-07T15:39:57;22.60;44.70
34137;DHT22;20414;50.860;4.382;2022-08-07T15:47:54;22.70;45.00
34137;DHT22;20414;50.860;4.382;2022-08-07T15:50:28;22.70;45.00
34137;DHT22;20414;50.860;4.382;2022-08-07T15:53:26;22.70;44.70
34137;DHT22;20414;50.860;4.382;2022-08-07T15:55:44;22.70;44.90
34137;DHT22;20414;50.860;4.382;2022-08-07T15:58:14;22.70;44.80
34137;DHT22;20414;50.860;4.382;2022-08-07T16:00:40;22.70;44.50
34137;DHT22;20414;50.860;4.382;2022-08-07T16:03:21;22.70;44.40
34137;DHT22;20414;50.860;4.382;2022-08-07T16:05:50;22.70;44.10
34137;DHT22;20414;50.860;4.382;2022-08-07T16:08:22;22.70;44.10
34137;DHT22;20414;50.860;4.382;2022-08-07T16:10:56;22.70;44.20
34137;DHT22;20414;50.860;4.382;2022-08-07T16:19:27;22.80;44.70
34137;DHT22;20414;50.860;4.382;2022-08-07T16:24:50;22.70;44.60
34137;DHT22;20414;50.860;4.382;2022-08-07T16:27:27;22.80;44.50
34137;DHT22;20414;50.860;4.382;2022-08-07T16:30:13;22.70;43.90
34137;DHT22;20414;50.860;4.382;2022-08-07T16:32:46;22.80;44.30
34137;DHT22;20414;50.860;4.382;2022-08-07T16:55:05;22.80;44.60
34137;DHT22;20414;50.860;4.382;2022-08-07T16:57:51;22.80;44.60
34137;DHT22;20414;50.860;4.382;2022-08-07T17:00:19;22.80;44.70
34137;DHT22;20414;50.860;4.382;2022-08-07T17:07:53;22.80;45.00
34137;DHT22;20414;50.860;4.382;2022-08-07T17:16:08;22.80;45.30
34137;DHT22;20414;50.860;4.382;2022-08-07T17:18:39;22.80;45.50
34137;DHT22;20414;50.860;4.382;2022-08-07T17:21:14;22.80;45.50
34137;DHT22;20414;50.860;4.382;2022-08-07T17:23:58;22.80;45.50
34137;DHT22;20414;50.860;4.382;2022-08-07T17:26:48;22.90;45.90
34137;DHT22;20414;50.860;4.382;2022-08-07T17:30:03;22.90;46.10
34137;DHT22;20414;50.860;4.382;2022-08-07T17:35:23;22.90;46.30
34137;DHT22;20414;50.860;4.382;2022-08-07T17:40:26;22.90;46.80
34137;DHT22;20414;50.860;4.382;2022-08-07T17:43:00;22.90;46.80
34137;DHT22;20414;50.860;4.382;2022-08-07T17:45:31;22.90;46.80
34137;DHT22;20414;50.860;4.382;2022-08-07T17:48:04;22.90;46.70
34137;DHT22;20414;50.860;4.382;2022-08-07T17:50:47;22.90;46.90
34137;DHT22;20414;50.860;4.382;2022-08-07T17:56:31;23.00;47.00
34137;DHT22;20414;50.860;4.382;2022-08-07T18:01:29;23.00;46.90
34137;DHT22;20414;50.860;4.382;2022-08-07T18:04:20;23.00;46.90
34137;DHT22;20414;50.860;4.382;2022-08-07T18:07:41;23.00;46.90
34137;DHT22;20414;50.860;4.382;2022-08-07T18:09:46;23.00;46.90
34137;DHT22;20414;50.860;4.382;2022-08-07T18:15:30;23.10;47.10
34137;DHT22;20414;50.860;4.382;2022-08-07T18:18:08;23.00;47.10
34137;DHT22;20414;50.860;4.382;2022-08-07T18:20:39;23.10;47.20
34137;DHT22;20414;50.860;4.382;2022-08-07T18:23:10;23.10;47.10
34137;DHT22;20414;50.860;4.382;2022-08-07T18:25:42;23.10;47.10
34137;DHT22;20414;50.860;4.382;2022-08-07T18:28:30;23.10;47.00
34137;DHT22;20414;50.860;4.382;2022-08-07T18:31:22;23.20;46.90
34137;DHT22;20414;50.860;4.382;2022-08-07T18:34:18;23.20;47.00
34137;DHT22;20414;50.860;4.382;2022-08-07T18:37:01;23.20;47.00
34137;DHT22;20414;50.860;4.382;2022-08-07T18:45:09;23.20;47.20
34137;DHT22;20414;50.860;4.382;2022-08-07T18:59:20;23.10;47.30
34137;DHT22;20414;50.860;4.382;2022-08-07T19:02:04;23.10;47.30
34137;DHT22;20414;50.860;4.382;2022-08-07T19:05:00;23.20;47.40
34137;DHT22;20414;50.860;4.382;2022-08-07T19:10:21;23.10;47.50
34137;DHT22;20414;50.860;4.382;2022-08-07T19:13:02;23.10;48.20
34137;DHT22;20414;50.860;4.382;2022-08-07T19:15:45;23.00;47.60
34137;DHT22;20414;50.860;4.382;2022-08-07T19:21:29;23.00;47.70
34137;DHT22;20414;50.860;4.382;2022-08-07T19:23:59;23.00;47.80
34137;DHT22;20414;50.860;4.382;2022-08-07T19:26:34;23.00;47.80